sensor_id;sensor_type;location;lat;lon;timestamp;pressure;altitude;pressure_sealevel;temperature;humidity
17072;BME280;7731;50.720;6.912;2024-02-16T00:01:48;99592.94;;;12.03;100.00
17072;BME280;7731;50.720;6.912;2024-02-16T00:04:31;99588.69;;;12.02;100.00
17072;BME280;7731;50.720;6.912;2024-02-16T00:07:03;99578.50;;;12.13;100.00
17072;BME280;7731;50.720;6.912;2024-02-16T00:09:34;99577.59;;;12.14;100.00
17072;BME280;7731;50.720;6.912;2024-02-16T00:12:11;99591.72;;;12.21;100.00
17072;BME280;7731;50.720;6.912;2024-02-16T00:14:42;99577.50;;;12.28;100.00
17072;BME280;7731;50.720;6.912;2024-02-16T00:17:14;99584.31;;;12.29;100.00
17072;BME280;7731;50.720;6.912;2024-02-16T00:19:49;99585.78;;;12.33;100.00
17072;BME280;7731;50.720;6.912;2024-02-16T00:22:22;99587.94;;;12.40;100.00
17072;BME280;7731;50.720;6.912;2024-02-16T00:24:53;99586.72;;;12.58;100.00
17072;BME280;7731;50.720;6.912;2024-02-16T00:27:23;99587.44;;;12.47;100.00
17072;BME280;7731;50.720;6.912;2024-02-16T00:29:54;99581.44;;;12.47;100.00
17072;BME280;7731;50.720;6.912;2024-02-16T00:32:29;99591.56;;;12.50;100.00
17072;BME280;7731;50.720;6.912;2024-02-16T00:35:10;99574.47;;;12.49;100.00
17072;BME280;7731;50.720;6.912;2024-02-16T00:37:51;99580.22;;;12.40;100.00
17072;BME280;7731;50.720;6.912;2024-02-16T00:40:21;99577.13;;;12.47;100.00
17072;BME280;7731;50.720;6.912;2024-02-16T00:42:53;99571.97;;;12.35;100.00
17072;BME280;7731;50.720;6.912;2024-02-16T00:45:23;99569.91;;;12.40;100.00
17072;BME280;7731;50.720;6.912;2024-02-16T00:47:53;99571.34;;;12.44;100.00
17072;BME280;7731;50.720;6.912;2024-02-16T00:50:34;99573.22;;;12.42;100.00
17072;BME280;7731;50.720;6.912;2024-02-16T00:53:05;99575.06;;;12.40;100.00
17072;BME280;7731;50.720;6.912;2024-02-16T00:55:35;99580.84;;;12.56;100.00
17072;BME280;7731;50.720;6.912;2024-02-16T00:58:09;99574.25;;;12.52;100.00
17072;BME280;7731;50.720;6.912;2024-02-16T01:00:42;99576.28;;;12.47;100.00
17072;BME280;7731;50.720;6.912;2024-02-16T01:03:13;99575.88;;;12.53;100.00
17072;BME280;7731;50.720;6.912;2024-02-16T01:05:48;99577.25;;;12.46;100.00
17072;BME280;7731;50.720;6.912;2024-02-16T01:08:30;99578.16;;;12.45;100.00
17072;BME280;7731;50.720;6.912;2024-02-16T01:11:01;99585.78;;;12.46;100.00
17072;BME280;7731;50.720;6.912;2024-02-16T01:13:31;99587.84;;;12.54;100.00
17072;BME280;7731;50.720;6.912;2024-02-16T01:16:03;99584.16;;;12.58;100.00
17072;BME280;7731;50.720;6.912;2024-02-16T01:18:37;99589.19;;;12.47;100.00
17072;BME280;7731;50.720;6.912;2024-02-16T01:21:10;99592.59;;;12.47;100.00
17072;BME280;7731;50.720;6.912;2024-02-16T01:23:46;99591.03;;;12.45;100.00
17072;BME280;7731;50.720;6.912;2024-02-16T01:26:17;99585.19;;;12.43;100.00
17072;BME280;7731;50.720;6.912;2024-02-16T01:28:47;99587.00;;;12.41;100.00
17072;BME280;7731;50.720;6.912;2024-02-16T01:31:17;99585.56;;;12.37;100.00
17072;BME280;7731;50.720;6.912;2024-02-16T01:33:50;99574.88;;;12.43;100.00
17072;BME280;7731;50.720;6.912;2024-02-16T01:36:24;99575.47;;;12.33;100.00
17072;BME280;7731;50.720;6.912;2024-02-16T01:38:54;99576.28;;;12.34;100.00
17072;BME280;7731;50.720;6.912;2024-02-16T01:41:24;99578.16;;;12.32;100.00
17072;BME280;7731;50.720;6.912;2024-02-16T01:44:00;99572.16;;;12.31;100.00
17072;BME280;7731;50.720;6.912;2024-02-16T01:46:31;99570.94;;;12.24;100.00
17072;BME280;7731;50.720;6.912;2024-02-16T01:49:03;99570.78;;;12.13;100.00
17072;BME280;7731;50.720;6.912;2024-02-16T01:51:40;99560.63;;;12.24;100.00
17072;BME280;7731;50.720;6.912;2024-02-16T01:54:12;99561.22;;;12.15;100.00
17072;BME280;7731;50.720;6.912;2024-02-16T01:56:49;99554.22;;;12.17;100.00
17072;BME280;7731;50.720;6.912;2024-02-16T01:59:20;99559.16;;;12.20;100.00
17072;BME280;7731;50.720;6.912;2024-02-16T02:01:50;99564.22;;;12.09;100.00
17072;BME280;7731;50.720;6.912;2024-02-16T02:04:23;99553.09;;;12.21;100.00
17072;BME280;7731;50.720;6.912;2024-02-16T02:07:11;99555.63;;;12.08;100.00
17072;BME280;7731;50.720;6.912;2024-02-16T02:09:45;99546.59;;;12.15;100.00
17072;BME280;7731;50.720;6.912;2024-02-16T02:12:18;99544.72;;;12.18;100.00
17072;BME280;7731;50.720;6.912;2024-02-16T02:14:51;99543.53;;;12.23;100.00
17072;BME280;7731;50.720;6.912;2024-02-16T02:17:22;99543.53;;;12.23;100.00
17072;BME280;7731;50.720;6.912;2024-02-16T02:19:54;99551.75;;;12.15;100.00
17072;BME280;7731;50.720;6.912;2024-02-16T02:22:36;99542.16;;;12.18;100.00
17072;BME280;7731;50.720;6.912;2024-02-16T02:25:08;99538.97;;;12.14;100.00
17072;BME280;7731;50.720;6.912;2024-02-16T02:27:39;99544.53;;;12.21;100.00
17072;BME280;7731;50.720;6.912;2024-02-16T02:30:15;99538.47;;;12.35;100.00
17072;BME280;7731;50.720;6.912;2024-02-16T02:32:46;99537.44;;;12.24;100.00
17072;BME280;7731;50.720;6.912;2024-02-16T02:35:17;99540.03;;;12.37;100.00
17072;BME280;7731;50.720;6.912;2024-02-16T02:38:04;99531.56;;;12.22;100.00
17072;BME280;7731;50.720;6.912;2024-02-16T02:40:34;99535.28;;;12.18;100.00
17072;BME280;7731;50.720;6.912;2024-02-16T02:43:08;99543.81;;;12.19;100.00
17072;BME280;7731;50.720;6.912;2024-02-16T02:45:46;99550.22;;;12.26;100.00
17072;BME280;7731;50.720;6.912;2024-02-16T02:48:16;99566.59;;;12.25;100.00
17072;BME280;7731;50.720;6.912;2024-02-16T02:50:46;99570.94;;;12.24;100.00
17072;BME280;7731;50.720;6.912;2024-02-16T02:53:19;99590.59;;;12.25;100.00
17072;BME280;7731;50.720;6.912;2024-02-16T02:55:56;99574.03;;;12.29;100.00
17072;BME280;7731;50.720;6.912;2024-02-16T02:58:28;99571.13;;;12.21;100.00
17072;BME280;7731;50.720;6.912;2024-02-16T03:00:59;99569.66;;;12.17;100.00
17072;BME280;7731;50.720;6.912;2024-02-16T03:03:29;99566.13;;;11.92;100.00
17072;BME280;7731;50.720;6.912;2024-02-16T03:06:37;99558.03;;;11.84;100.00
17072;BME280;7731;50.720;6.912;2024-02-16T03:09:15;99556.97;;;11.74;100.00
17072;BME280;7731;50.720;6.912;2024-02-16T03:11:45;99552.41;;;11.65;100.00
17072;BME280;7731;50.720;6.912;2024-02-16T03:14:16;99552.88;;;11.57;100.00
17072;BME280;7731;50.720;6.912;2024-02-16T03:16:47;99553.56;;;11.46;100.00
17072;BME280;7731;50.720;6.912;2024-02-16T03:19:17;99554.13;;;11.37;100.00
17072;BME280;7731;50.720;6.912;2024-02-16T03:21:47;99559.84;;;11.28;100.00
17072;BME280;7731;50.720;6.912;2024-02-16T03:24:20;99550.56;;;11.25;100.00
17072;BME280;7731;50.720;6.912;2024-02-16T03:26:57;99566.81;;;11.25;100.00
17072;BME280;7731;50.720;6.912;2024-02-16T03:29:28;99572.13;;;11.22;100.00
17072;BME280;7731;50.720;6.912;2024-02-16T03:31:58;99573.28;;;11.18;100.00
17072;BME280;7731;50.720;6.912;2024-02-16T03:34:29;99571.97;;;11.11;100.00
17072;BME280;7731;50.720;6.912;2024-02-16T03:37:00;99571.31;;;11.22;100.00
17072;BME280;7731;50.720;6.912;2024-02-16T03:39:33;99574.63;;;11.24;100.00
17072;BME280;7731;50.720;6.912;2024-02-16T03:42:07;99568.66;;;11.23;100.00
17072;BME280;7731;50.720;6.912;2024-02-16T03:44:37;99589.75;;;11.29;100.00
17072;BME280;7731;50.720;6.912;2024-02-16T03:47:07;99583.91;;;11.26;100.00
17072;BME280;7731;50.720;6.912;2024-02-16T03:49:38;99584.38;;;11.19;100.00
17072;BME280;7731;50.720;6.912;2024-02-16T03:52:09;99576.00;;;11.30;100.00
17072;BME280;7731;50.720;6.912;2024-02-16T03:55:00;99578.03;;;11.24;100.00
17072;BME280;7731;50.720;6.912;2024-02-16T03:57:31;99564.91;;;11.15;100.00
17072;BME280;7731;50.720;6.912;2024-02-16T04:00:01;99569.47;;;11.24;100.00
17072;BME280;7731;50.720;6.912;2024-02-16T04:02:38;99562.13;;;11.32;100.00
17072;BME280;7731;50.720;6.912;2024-02-16T04:05:12;99549.75;;;11.24;100.00
17072;BME280;7731;50.720;6.912;2024-02-16T04:07:45;99536.34;;;11.19;100.00
17072;BME280;7731;50.720;6.912;2024-02-16T04:10:18;99552.69;;;11.18;100.00
17072;BME280;7731;50.720;6.912;2024-02-16T04:12:48;99560.22;;;11.21;100.00
17072;BME280;7731;50.720;6.912;2024-02-16T04:15:18;99557.38;;;11.12;100.00
17072;BME280;7731;50.720;6.912;2024-02-16T04:17:52;99558.03;;;11.01;100.00
17072;BME280;7731;50.720;6.912;2024-02-16T04:20:38;99557.66;;;11.07;100.00
17072;BME280;7731;50.720;6.912;2024-02-16T04:23:08;99566.84;;;10.97;100.00
17072;BME280;7731;50.720;6.912;2024-02-16T04:25:41;99571.63;;;11.03;100.00
17072;BME280;7731;50.720;6.912;2024-02-16T04:28:12;99582.28;;;10.97;100.00
17072;BME280;7731;50.720;6.912;2024-02-16T04:30:42;99582.47;;;10.94;100.00
17072;BME280;7731;50.720;6.912;2024-02-16T04:33:14;99585.94;;;10.93;100.00
17072;BME280;7731;50.720;6.912;2024-02-16T04:35:45;99589.22;;;10.95;100.00
17072;BME280;7731;50.720;6.912;2024-02-16T04:38:21;99580.81;;;10.93;100.00
17072;BME280;7731;50.720;6.912;2024-02-16T04:41:12;99594.56;;;10.92;100.00
17072;BME280;7731;50.720;6.912;2024-02-16T04:43:43;99596.03;;;10.96;100.00
17072;BME280;7731;50.720;6.912;2024-02-16T04:46:14;99585.69;;;10.83;100.00
17072;BME280;7731;50.720;6.912;2024-02-16T04:48:45;99595.84;;;10.99;100.00
17072;BME280;7731;50.720;6.912;2024-02-16T04:51:18;99598.69;;;10.94;100.00
17072;BME280;7731;50.720;6.912;2024-02-16T04:53:51;99599.50;;;10.95;100.00
17072;BME280;7731;50.720;6.912;2024-02-16T04:56:29;99600.19;;;10.98;100.00
17072;BME280;7731;50.720;6.912;2024-02-16T04:59:00;99596.50;;;11.02;100.00
17072;BME280;7731;50.720;6.912;2024-02-16T05:01:30;99599.16;;;11.01;100.00
17072;BME280;7731;50.720;6.912;2024-02-16T05:04:01;99602.47;;;11.03;100.00
17072;BME280;7731;50.720;6.912;2024-02-16T05:06:40;99600.81;;;11.02;100.00
17072;BME280;7731;50.720;6.912;2024-02-16T05:09:10;99597.50;;;11.14;100.00
17072;BME280;7731;50.720;6.912;2024-02-16T05:11:49;99592.09;;;11.04;100.00
17072;BME280;7731;50.720;6.912;2024-02-16T05:14:19;99594.41;;;11.09;100.00
17072;BME280;7731;50.720;6.912;2024-02-16T05:16:52;99604.69;;;11.09;100.00
17072;BME280;7731;50.720;6.912;2024-02-16T05:19:26;99602.47;;;11.03;100.00
17072;BME280;7731;50.720;6.912;2024-02-16T05:21:56;99611.28;;;10.99;100.00
17072;BME280;7731;50.720;6.912;2024-02-16T05:24:29;99605.94;;;11.02;100.00
17072;BME280;7731;50.720;6.912;2024-02-16T05:27:05;99593.81;;;11.04;100.00
17072;BME280;7731;50.720;6.912;2024-02-16T05:29:35;99597.53;;;11.00;100.00
17072;BME280;7731;50.720;6.912;2024-02-16T05:32:06;99597.16;;;11.06;100.00
17072;BME280;7731;50.720;6.912;2024-02-16T05:34:38;99595.94;;;11.12;100.00
17072;BME280;7731;50.720;6.912;2024-02-16T05:37:09;99586.03;;;11.20;100.00
17072;BME280;7731;50.720;6.912;2024-02-16T05:39:52;99589.41;;;11.20;100.00
17072;BME280;7731;50.720;6.912;2024-02-16T05:42:38;99577.84;;;11.13;100.00
17072;BME280;7731;50.720;6.912;2024-02-16T05:45:09;99575.47;;;11.24;100.00
17072;BME280;7731;50.720;6.912;2024-02-16T05:47:45;99567.38;;;11.16;100.00
17072;BME280;7731;50.720;6.912;2024-02-16T05:50:22;99575.28;;;11.28;100.00
17072;BME280;7731;50.720;6.912;2024-02-16T05:52:52;99572.59;;;11.29;100.00
17072;BME280;7731;50.720;6.912;2024-02-16T05:55:23;99570.94;;;11.28;100.00
17072;BME280;7731;50.720;6.912;2024-02-16T05:58:02;99576.00;;;11.30;100.00
17072;BME280;7731;50.720;6.912;2024-02-16T06:00:34;99576.47;;;11.22;100.00
17072;BME280;7731;50.720;6.912;2024-02-16T06:03:08;99581.94;;;11.44;100.00
17072;BME280;7731;50.720;6.912;2024-02-16T06:05:38;99584.34;;;11.33;100.00
17072;BME280;7731;50.720;6.912;2024-02-16T06:08:11;99577.56;;;11.32;100.00
17072;BME280;7731;50.720;6.912;2024-02-16T06:10:43;99577.28;;;11.37;100.00
17072;BME280;7731;50.720;6.912;2024-02-16T06:13:23;99573.63;;;11.26;100.00
17072;BME280;7731;50.720;6.912;2024-02-16T06:15:54;99573.25;;;11.33;100.00
17072;BME280;7731;50.720;6.912;2024-02-16T06:18:27;99571.19;;;11.38;100.00
17072;BME280;7731;50.720;6.912;2024-02-16T06:20:58;99568.28;;;11.30;100.00
17072;BME280;7731;50.720;6.912;2024-02-16T06:23:28;99572.81;;;11.26;100.00
17072;BME280;7731;50.720;6.912;2024-02-16T06:25:58;99563.19;;;11.42;100.00
17072;BME280;7731;50.720;6.912;2024-02-16T06:28:31;99559.81;;;11.42;100.00
17072;BME280;7731;50.720;6.912;2024-02-16T06:31:08;99567.53;;;11.42;100.00
17072;BME280;7731;50.720;6.912;2024-02-16T06:33:38;99567.44;;;11.43;100.00
17072;BME280;7731;50.720;6.912;2024-02-16T06:36:11;99567.22;;;11.61;100.00
17072;BME280;7731;50.720;6.912;2024-02-16T06:38:41;99567.31;;;11.59;100.00
17072;BME280;7731;50.720;6.912;2024-02-16T06:41:13;99555.50;;;11.70;100.00
17072;BME280;7731;50.720;6.912;2024-02-16T06:43:48;99552.78;;;11.58;100.00
17072;BME280;7731;50.720;6.912;2024-02-16T06:46:20;99565.78;;;11.70;100.00
17072;BME280;7731;50.720;6.912;2024-02-16T06:48:52;99557.84;;;11.60;100.00
17072;BME280;7731;50.720;6.912;2024-02-16T06:51:32;99564.09;;;11.56;100.00
17072;BME280;7731;50.720;6.912;2024-02-16T06:54:03;99572.38;;;11.61;100.00
17072;BME280;7731;50.720;6.912;2024-02-16T06:56:34;99578.13;;;11.65;100.00
17072;BME280;7731;50.720;6.912;2024-02-16T06:59:08;99578.94;;;11.65;100.00
17072;BME280;7731;50.720;6.912;2024-02-16T07:01:47;99587.66;;;11.77;100.00
17072;BME280;7731;50.720;6.912;2024-02-16T07:04:18;99591.88;;;11.78;100.00
17072;BME280;7731;50.720;6.912;2024-02-16T07:06:51;99574.25;;;11.72;100.00
17072;BME280;7731;50.720;6.912;2024-02-16T07:09:24;99588.56;;;11.76;100.00
17072;BME280;7731;50.720;6.912;2024-02-16T07:11:55;99594.66;;;11.75;100.00
17072;BME280;7731;50.720;6.912;2024-02-16T07:14:33;99611.16;;;11.85;100.00
17072;BME280;7731;50.720;6.912;2024-02-16T07:17:06;99611.72;;;11.76;100.00
17072;BME280;7731;50.720;6.912;2024-02-16T07:19:37;99613.38;;;11.77;100.00
17072;BME280;7731;50.720;6.912;2024-02-16T07:22:13;99607.84;;;11.83;100.00
17072;BME280;7731;50.720;6.912;2024-02-16T07:24:43;99640.41;;;11.84;100.00
17072;BME280;7731;50.720;6.912;2024-02-16T07:27:13;99641.84;;;11.88;100.00
17072;BME280;7731;50.720;6.912;2024-02-16T07:29:52;99658.03;;;11.90;100.00
17072;BME280;7731;50.720;6.912;2024-02-16T07:32:24;99650.69;;;11.84;100.00
17072;BME280;7731;50.720;6.912;2024-02-16T07:35:00;99656.47;;;11.88;100.00
17072;BME280;7731;50.720;6.912;2024-02-16T07:37:30;99656.56;;;11.86;100.00
17072;BME280;7731;50.720;6.912;2024-02-16T07:40:01;99664.09;;;11.89;100.00
17072;BME280;7731;50.720;6.912;2024-02-16T07:42:33;99666.41;;;11.94;100.00
17072;BME280;7731;50.720;6.912;2024-02-16T07:45:10;99659.13;;;12.01;100.00
17072;BME280;7731;50.720;6.912;2024-02-16T07:47:41;99668.63;;;12.13;100.00
17072;BME280;7731;50.720;6.912;2024-02-16T07:50:12;99658.09;;;12.30;100.00
17072;BME280;7731;50.720;6.912;2024-02-16T07:52:56;99667.44;;;12.19;100.00
17072;BME280;7731;50.720;6.912;2024-02-16T07:55:26;99671.03;;;12.16;100.00
17072;BME280;7731;50.720;6.912;2024-02-16T07:57:58;99680.53;;;12.28;100.00
17072;BME280;7731;50.720;6.912;2024-02-16T08:00:33;99680.53;;;12.28;100.00
17072;BME280;7731;50.720;6.912;2024-02-16T08:03:09;99680.44;;;12.30;100.00
17072;BME280;7731;50.720;6.912;2024-02-16T08:05:45;99672.38;;;12.49;100.00
17072;BME280;7731;50.720;6.912;2024-02-16T08:08:15;99677.63;;;12.60;100.00
17072;BME280;7731;50.720;6.912;2024-02-16T08:10:46;99677.38;;;12.78;100.00
17072;BME280;7731;50.720;6.912;2024-02-16T08:13:17;99684.56;;;12.73;100.00
17072;BME280;7731;50.720;6.912;2024-02-16T08:15:50;99687.91;;;12.88;100.00
17072;BME280;7731;50.720;6.912;2024-02-16T08:18:21;99703.16;;;12.78;100.00
17072;BME280;7731;50.720;6.912;2024-02-16T08:20:55;99703.47;;;12.73;100.00
17072;BME280;7731;50.720;6.912;2024-02-16T08:23:31;99713.47;;;12.78;100.00
17072;BME280;7731;50.720;6.912;2024-02-16T08:26:07;99713.16;;;12.82;100.00
17072;BME280;7731;50.720;6.912;2024-02-16T08:28:37;99712.47;;;12.93;100.00
17072;BME280;7731;50.720;6.912;2024-02-16T08:31:15;99711.84;;;13.02;100.00
17072;BME280;7731;50.720;6.912;2024-02-16T08:33:45;99718.03;;;13.00;100.00
17072;BME280;7731;50.720;6.912;2024-02-16T08:36:19;99707.91;;;12.97;100.00
17072;BME280;7731;50.720;6.912;2024-02-16T08:38:56;99722.56;;;13.22;100.00
17072;BME280;7731;50.720;6.912;2024-02-16T08:41:27;99725.66;;;13.14;100.00
17072;BME280;7731;50.720;6.912;2024-02-16T08:44:00;99721.00;;;13.07;100.00
17072;BME280;7731;50.720;6.912;2024-02-16T08:46:33;99724.75;;;13.02;100.00
17072;BME280;7731;50.720;6.912;2024-02-16T08:49:04;99730.00;;;13.01;100.00
17072;BME280;7731;50.720;6.912;2024-02-16T08:51:35;99734.84;;;13.06;100.00
17072;BME280;7731;50.720;6.912;2024-02-16T08:54:06;99739.72;;;13.10;100.00
17072;BME280;7731;50.720;6.912;2024-02-16T08:56:49;99747.75;;;13.18;100.00
17072;BME280;7731;50.720;6.912;2024-02-16T08:59:22;99738.91;;;13.35;100.00
17072;BME280;7731;50.720;6.912;2024-02-16T09:01:56;99730.41;;;13.08;100.00
17072;BME280;7731;50.720;6.912;2024-02-16T09:04:29;99734.34;;;13.13;100.00
17072;BME280;7731;50.720;6.912;2024-02-16T09:07:00;99729.78;;;13.04;100.00
17072;BME280;7731;50.720;6.912;2024-02-16T09:09:32;99746.28;;;13.01;100.00
17072;BME280;7731;50.720;6.912;2024-02-16T09:12:03;99737.84;;;12.99;100.00
17072;BME280;7731;50.720;6.912;2024-02-16T09:14:33;99743.00;;;12.99;100.00
17072;BME280;7731;50.720;6.912;2024-02-16T09:17:09;99745.97;;;13.06;100.00
17072;BME280;7731;50.720;6.912;2024-02-16T09:19:43;99748.16;;;12.99;100.00
17072;BME280;7731;50.720;6.912;2024-02-16T09:22:16;99741.84;;;13.03;100.00
17072;BME280;7731;50.720;6.912;2024-02-16T09:24:46;99741.97;;;13.28;100.00
17072;BME280;7731;50.720;6.912;2024-02-16T09:27:16;99753.53;;;13.22;100.00
17072;BME280;7731;50.720;6.912;2024-02-16T09:29:54;99757.75;;;13.10;100.00
17072;BME280;7731;50.720;6.912;2024-02-16T09:32:27;99758.47;;;13.25;100.00
17072;BME280;7731;50.720;6.912;2024-02-16T09:35:00;99754.56;;;13.19;100.00
17072;BME280;7731;50.720;6.912;2024-02-16T09:37:34;99751.47;;;13.27;100.00
17072;BME280;7731;50.720;6.912;2024-02-16T09:40:17;99767.16;;;13.24;100.00
17072;BME280;7731;50.720;6.912;2024-02-16T09:42:49;99772.22;;;13.51;100.00
17072;BME280;7731;50.720;6.912;2024-02-16T09:45:22;99771.50;;;13.62;100.00
17072;BME280;7731;50.720;6.912;2024-02-16T09:47:58;99781.03;;;13.49;100.00
17072;BME280;7731;50.720;6.912;2024-02-16T09:50:34;99789.84;;;13.19;100.00
17072;BME280;7731;50.720;6.912;2024-02-16T09:53:06;99789.00;;;13.06;100.00
17072;BME280;7731;50.720;6.912;2024-02-16T09:55:39;99801.19;;;13.16;100.00
17072;BME280;7731;50.720;6.912;2024-02-16T09:58:09;99802.72;;;13.19;100.00
17072;BME280;7731;50.720;6.912;2024-02-16T10:00:52;99803.22;;;13.11;100.00
17072;BME280;7731;50.720;6.912;2024-02-16T10:03:31;99789.41;;;12.99;100.00
17072;BME280;7731;50.720;6.912;2024-02-16T10:06:08;99807.69;;;12.82;100.00
17072;BME280;7731;50.720;6.912;2024-02-16T10:08:48;99807.50;;;12.85;100.00
17072;BME280;7731;50.720;6.912;2024-02-16T10:11:21;99817.81;;;12.85;100.00
17072;BME280;7731;50.720;6.912;2024-02-16T10:14:04;99820.75;;;12.93;100.00
17072;BME280;7731;50.720;6.912;2024-02-16T10:16:42;99814.59;;;13.09;100.00
17072;BME280;7731;50.720;6.912;2024-02-16T10:19:18;99826.94;;;13.03;100.00
17072;BME280;7731;50.720;6.912;2024-02-16T10:21:51;99838.06;;;12.91;100.00
17072;BME280;7731;50.720;6.912;2024-02-16T10:24:24;99839.31;;;12.98;100.00
17072;BME280;7731;50.720;6.912;2024-02-16T10:26:55;99848.63;;;13.01;100.00
17072;BME280;7731;50.720;6.912;2024-02-16T10:29:27;99856.25;;;13.02;100.00
17072;BME280;7731;50.720;6.912;2024-02-16T10:32:00;99846.34;;;12.96;100.00
17072;BME280;7731;50.720;6.912;2024-02-16T10:34:37;99865.63;;;13.03;100.00
17072;BME280;7731;50.720;6.912;2024-02-16T10:37:10;99870.34;;;13.24;100.00
17072;BME280;7731;50.720;6.912;2024-02-16T10:39:41;99870.94;;;13.15;100.00
17072;BME280;7731;50.720;6.912;2024-02-16T10:42:14;99870.94;;;13.15;100.00
17072;BME280;7731;50.720;6.912;2024-02-16T10:44:51;99873.84;;;13.23;100.00
17072;BME280;7731;50.720;6.912;2024-02-16T10:47:24;99873.44;;;13.29;100.00
17072;BME280;7731;50.720;6.912;2024-02-16T10:50:01;99873.44;;;13.16;100.00
17072;BME280;7731;50.720;6.912;2024-02-16T10:52:32;99865.53;;;13.05;100.00
17072;BME280;7731;50.720;6.912;2024-02-16T10:55:25;99865.81;;;13.00;100.00
17072;BME280;7731;50.720;6.912;2024-02-16T10:57:56;99861.16;;;12.93;100.00
17072;BME280;7731;50.720;6.912;2024-02-16T11:00:27;99864.28;;;12.98;100.00
17072;BME280;7731;50.720;6.912;2024-02-16T11:03:01;99871.34;;;13.09;100.00
17072;BME280;7731;50.720;6.912;2024-02-16T11:05:36;99873.16;;;13.07;100.00
17072;BME280;7731;50.720;6.912;2024-02-16T11:08:14;99863.81;;;13.06;100.00
17072;BME280;7731;50.720;6.912;2024-02-16T11:10:58;99873.16;;;13.07;100.00
17072;BME280;7731;50.720;6.912;2024-02-16T11:13:36;99863.22;;;13.15;100.00
17072;BME280;7731;50.720;6.912;2024-02-16T11:16:10;99864.13;;;13.14;100.00
17072;BME280;7731;50.720;6.912;2024-02-16T11:18:46;99866.81;;;13.12;100.00
17072;BME280;7731;50.720;6.912;2024-02-16T11:21:27;99864.31;;;13.11;100.00
17072;BME280;7731;50.720;6.912;2024-02-16T11:24:06;99856.69;;;13.22;100.00
17072;BME280;7731;50.720;6.912;2024-02-16T11:26:45;99861.44;;;13.43;100.00
17072;BME280;7731;50.720;6.912;2024-02-16T11:29:16;99867.72;;;13.38;100.00
17072;BME280;7731;50.720;6.912;2024-02-16T11:31:50;99871.41;;;13.34;100.00
17072;BME280;7731;50.720;6.912;2024-02-16T11:34:23;99868.03;;;13.47;100.00
17072;BME280;7731;50.720;6.912;2024-02-16T11:36:58;99881.56;;;13.50;100.00
17072;BME280;7731;50.720;6.912;2024-02-16T11:39:29;99873.84;;;13.63;100.00
17072;BME280;7731;50.720;6.912;2024-02-16T11:42:11;99874.19;;;13.71;100.00
17072;BME280;7731;50.720;6.912;2024-02-16T11:44:52;99890.06;;;13.91;100.00
17072;BME280;7731;50.720;6.912;2024-02-16T11:47:25;99884.28;;;14.00;100.00
17072;BME280;7731;50.720;6.912;2024-02-16T11:50:02;99890.28;;;13.88;100.00
17072;BME280;7731;50.720;6.912;2024-02-16T11:52:35;99891.53;;;13.95;100.00
17072;BME280;7731;50.720;6.912;2024-02-16T11:55:10;99895.59;;;13.59;100.00
17072;BME280;7731;50.720;6.912;2024-02-16T11:57:47;99895.50;;;13.48;100.00
17072;BME280;7731;50.720;6.912;2024-02-16T12:00:27;99897.88;;;13.51;100.00
17072;BME280;7731;50.720;6.912;2024-02-16T12:03:01;99898.09;;;13.48;100.00
17072;BME280;7731;50.720;6.912;2024-02-16T12:05:32;99901.38;;;13.50;100.00
17072;BME280;7731;50.720;6.912;2024-02-16T12:08:06;99908.91;;;13.53;100.00
17072;BME280;7731;50.720;6.912;2024-02-16T12:10:37;99915.72;;;13.41;100.00
17072;BME280;7731;50.720;6.912;2024-02-16T12:13:08;99909.66;;;13.55;100.00
17072;BME280;7731;50.720;6.912;2024-02-16T12:15:39;99910.81;;;13.77;100.00
17072;BME280;7731;50.720;6.912;2024-02-16T12:18:29;99927.88;;;13.79;100.00
17072;BME280;7731;50.720;6.912;2024-02-16T12:21:00;99930.16;;;13.84;100.00
17072;BME280;7731;50.720;6.912;2024-02-16T12:23:35;99936.75;;;13.88;100.00
17072;BME280;7731;50.720;6.912;2024-02-16T12:26:06;99934.28;;;13.73;100.00
17072;BME280;7731;50.720;6.912;2024-02-16T12:28:36;99934.28;;;13.73;100.00
17072;BME280;7731;50.720;6.912;2024-02-16T12:31:22;99944.25;;;13.65;100.00
17072;BME280;7731;50.720;6.912;2024-02-16T12:33:53;99932.78;;;13.56;100.00
17072;BME280;7731;50.720;6.912;2024-02-16T12:36:27;99937.00;;;13.57;100.00
17072;BME280;7731;50.720;6.912;2024-02-16T12:39:00;99933.81;;;13.54;100.00
17072;BME280;7731;50.720;6.912;2024-02-16T12:41:31;99929.66;;;13.51;100.00
17072;BME280;7731;50.720;6.912;2024-02-16T12:44:01;99931.53;;;13.62;100.00
17072;BME280;7731;50.720;6.912;2024-02-16T12:46:32;99940.44;;;13.58;100.00
17072;BME280;7731;50.720;6.912;2024-02-16T12:49:02;99941.34;;;13.57;100.00
17072;BME280;7731;50.720;6.912;2024-02-16T12:51:40;99939.50;;;13.59;100.00
17072;BME280;7731;50.720;6.912;2024-02-16T12:54:13;99940.94;;;13.63;100.00
17072;BME280;7731;50.720;6.912;2024-02-16T12:56:46;99942.16;;;13.57;100.00
17072;BME280;7731;50.720;6.912;2024-02-16T12:59:20;99939.16;;;13.51;100.00
17072;BME280;7731;50.720;6.912;2024-02-16T13:02:03;99937.50;;;13.50;100.00
17072;BME280;7731;50.720;6.912;2024-02-16T13:04:33;99940.25;;;13.61;100.00
17072;BME280;7731;50.720;6.912;2024-02-16T13:07:04;99947.69;;;13.66;100.00
17072;BME280;7731;50.720;6.912;2024-02-16T13:09:39;99947.63;;;13.53;100.00
17072;BME280;7731;50.720;6.912;2024-02-16T13:12:12;99944.72;;;13.45;100.00
17072;BME280;7731;50.720;6.912;2024-02-16T13:14:45;99949.28;;;13.41;100.00
17072;BME280;7731;50.720;6.912;2024-02-16T13:17:16;99956.72;;;13.46;100.00
17072;BME280;7731;50.720;6.912;2024-02-16T13:19:49;99958.56;;;13.44;100.00
17072;BME280;7731;50.720;6.912;2024-02-16T13:22:28;99958.16;;;13.50;100.00
17072;BME280;7731;50.720;6.912;2024-02-16T13:25:03;99958.44;;;13.45;100.00
17072;BME280;7731;50.720;6.912;2024-02-16T13:27:35;99962.84;;;13.30;100.00
17072;BME280;7731;50.720;6.912;2024-02-16T13:30:07;99957.50;;;13.33;100.00
17072;BME280;7731;50.720;6.912;2024-02-16T13:32:38;99954.81;;;13.35;100.00
17072;BME280;7731;50.720;6.912;2024-02-16T13:35:10;99960.44;;;13.27;100.00